Time;durP1;ratioP1;P1;durP2;ratioP2;P2;SDS_P1;SDS_P2;PMS_P1;PMS_P2;Temp;Humidity;BMP_temperature;BMP_pressure;BME280_temperature;BME280_humidity;BME280_pressure;Samples;Min_cycle;Max_cycle;Signal;HPM_P1;HPM_P2
2022/03/24 00:00:40;;;;;;;;;;;10.60;1.00;;;;;;10454219;27;84737;-47
2022/03/24 00:05:41;;;;;;;;;;;10.50;1.00;;;;;;10453532;28;84034;-47
2022/03/24 00:10:41;;;;;;;;;;;10.50;1.00;;;;;;10453104;27;84842;-47
2022/03/24 00:15:42;;;;;;;;;;;10.30;1.00;;;;;;10453366;28;84923;-49
2022/03/24 00:20:42;;;;;;;;;;;10.30;1.00;;;;;;10453964;27;84119;-50
2022/03/24 00:25:43;;;;;;;;;;;10.10;1.00;;;;;;10452816;28;84133;-49
2022/03/24 00:30:44;;;;;;;;;;;10.10;1.00;;;;;;10452800;28;84955;-47
2022/03/24 00:35:44;;;;;;;;;;;10.00;1.00;;;;;;10451181;28;84873;-49
2022/03/24 00:40:45;;;;;;;;;;;9.90;1.00;;;;;;10433984;28;86923;-48
2022/03/24 00:45:45;;;;;;;;;;;9.80;1.00;;;;;;10467501;27;85847;-52
2022/03/24 00:50:46;;;;;;;;;;;9.80;1.00;;;;;;10468880;27;86862;-52
2022/03/24 00:55:46;;;;;;;;;;;9.70;1.00;;;;;;10452247;28;84147;-50
2022/03/24 01:00:49;;;;;;;;;;;9.50;1.00;;;;;;10468695;22;84864;-48
2022/03/24 01:05:49;;;;;;;;;;;9.50;8.30;;;;;;10452287;28;84100;-48
2022/03/24 01:10:52;;;;;;;;;;;9.50;72.40;;;;;;10442954;27;86852;-53
2022/03/24 01:15:52;;;;;;;;;;;9.40;99.90;;;;;;10408114;28;86016;-50
2022/03/24 01:20:53;;;;;;;;;;;9.30;99.90;;;;;;10409694;28;84005;-51
2022/03/24 01:25:54;;;;;;;;;;;9.30;99.90;;;;;;10438644;28;86738;-46
2022/03/24 01:30:55;;;;;;;;;;;9.30;1.00;;;;;;10450011;28;87145;-48
2022/03/24 01:35:55;;;;;;;;;;;9.40;1.00;;;;;;10449026;28;87345;-48
2022/03/24 01:40:58;;;;;;;;;;;9.30;1.00;;;;;;10449645;27;84737;-53
2022/03/24 01:45:59;;;;;;;;;;;9.10;1.00;;;;;;10450003;28;84139;-53
2022/03/24 01:51:00;;;;;;;;;;;9.10;1.00;;;;;;10453473;27;84136;-51
2022/03/24 01:56:00;;;;;;;;;;;9.10;99.90;;;;;;10424553;28;85925;-49
2022/03/24 02:01:22;;;;;;;;;;;9.10;99.90;;;;;;10422367;28;86256;-51
2022/03/24 02:06:26;;;;;;;;;;;9.10;1.00;;;;;;10430962;28;85730;-50
2022/03/24 02:11:27;;;;;;;;;;;9.00;1.00;;;;;;10460929;28;86645;-50
2022/03/24 02:16:34;;;;;;;;;;;8.90;1.00;;;;;;10455720;28;86058;-52
2022/03/24 02:21:34;;;;;;;;;;;8.70;1.00;;;;;;10438721;28;86894;-50
2022/03/24 02:26:36;;;;;;;;;;;8.70;1.00;;;;;;10414896;28;84950;-51
2022/03/24 02:31:38;;;;;;;;;;;8.80;1.00;;;;;;10415722;28;85130;-50
2022/03/24 02:36:39;;;;;;;;;;;8.70;1.00;;;;;;10414111;28;84867;-49
2022/03/24 02:41:46;;;;;;;;;;;8.80;1.00;;;;;;10414979;28;84134;-48
2022/03/24 02:46:48;;;;;;;;;;;8.80;1.00;;;;;;10413882;28;86018;-49
2022/03/24 02:51:50;;;;;;;;;;;8.60;1.00;;;;;;10415729;28;84943;-52
2022/03/24 02:56:51;;;;;;;;;;;8.60;1.00;;;;;;10448424;28;84028;-50
2022/03/24 03:02:02;;;;;;;;;;;8.50;1.50;;;;;;10444345;27;84865;-49
2022/03/24 03:07:03;;;;;;;;;;;8.50;85.30;;;;;;10415691;28;84835;-50
2022/03/24 03:12:04;;;;;;;;;;;8.60;69.80;;;;;;10454147;28;84897;-54
2022/03/24 03:17:05;;;;;;;;;;;8.60;66.90;;;;;;10437436;28;85179;-50
2022/03/24 03:22:06;;;;;;;;;;;8.40;99.90;;;;;;10429475;28;84113;-52
2022/03/24 03:27:07;;;;;;;;;;;8.40;1.00;;;;;;10429309;28;84354;-51
2022/03/24 03:32:09;;;;;;;;;;;8.30;1.00;;;;;;10435328;28;84846;-54
2022/03/24 03:37:10;;;;;;;;;;;8.20;1.00;;;;;;10440779;28;84210;-47
2022/03/24 03:42:10;;;;;;;;;;;8.20;1.00;;;;;;10435931;28;84757;-55
2022/03/24 03:47:11;;;;;;;;;;;8.00;1.00;;;;;;10439062;28;84946;-52
2022/03/24 03:52:12;;;;;;;;;;;8.00;99.90;;;;;;10422262;27;84311;-49
2022/03/24 03:57:13;;;;;;;;;;;7.90;1.00;;;;;;10429497;28;84133;-50
2022/03/24 04:02:14;;;;;;;;;;;7.80;1.00;;;;;;10433351;28;84894;-51
2022/03/24 04:07:14;;;;;;;;;;;7.70;99.90;;;;;;10434776;28;83956;-50
2022/03/24 04:12:15;;;;;;;;;;;7.70;1.00;;;;;;10431533;28;88150;-52
2022/03/24 04:17:17;;;;;;;;;;;7.70;1.00;;;;;;10434717;27;84223;-48
2022/03/24 04:22:17;;;;;;;;;;;7.50;1.00;;;;;;10437618;28;85081;-49
2022/03/24 04:27:18;;;;;;;;;;;7.50;1.00;;;;;;10435907;28;84123;-48
2022/03/24 04:32:18;;;;;;;;;;;7.60;84.80;;;;;;10419460;28;85002;-50
2022/03/24 04:37:19;;;;;;;;;;;7.70;1.00;;;;;;10439381;28;84833;-50
2022/03/24 04:42:20;;;;;;;;;;;7.60;1.00;;;;;;10434313;28;84854;-49
2022/03/24 04:47:21;;;;;;;;;;;7.60;99.90;;;;;;10433840;27;84866;-47
2022/03/24 04:52:22;;;;;;;;;;;7.50;99.90;;;;;;10414653;28;84604;-49
2022/03/24 04:57:22;;;;;;;;;;;7.40;1.00;;;;;;10447540;28;84196;-51
2022/03/24 05:02:24;;;;;;;;;;;7.40;1.00;;;;;;10450263;28;84094;-49
2022/03/24 05:07:26;;;;;;;;;;;7.30;1.00;;;;;;10413867;28;84122;-54
2022/03/24 05:12:27;;;;;;;;;;;7.30;99.90;;;;;;10437836;27;84644;-49
2022/03/24 05:17:27;;;;;;;;;;;7.40;50.20;;;;;;10431009;28;85100;-54
2022/03/24 05:22:28;;;;;;;;;;;7.40;99.90;;;;;;10432489;28;85175;-52
2022/03/24 05:27:29;;;;;;;;;;;7.30;47.00;;;;;;10449576;28;84887;-53
2022/03/24 05:32:29;;;;;;;;;;;7.30;99.90;;;;;;10449905;28;84820;-54
2022/03/24 05:37:31;;;;;;;;;;;7.20;1.00;;;;;;10448510;27;84493;-44
2022/03/24 05:42:31;;;;;;;;;;;7.30;1.00;;;;;;10433408;28;84255;-49
2022/03/24 05:47:32;;;;;;;;;;;7.20;1.00;;;;;;10445783;28;84935;-49
2022/03/24 05:52:34;;;;;;;;;;;7.30;1.00;;;;;;10424636;28;86673;-54
2022/03/24 05:57:34;;;;;;;;;;;7.30;1.00;;;;;;10434755;27;84204;-49
2022/03/24 06:02:35;;;;;;;;;;;7.40;95.90;;;;;;10440849;28;85269;-51
2022/03/24 06:07:36;;;;;;;;;;;7.40;99.90;;;;;;10418523;28;85117;-54
2022/03/24 06:12:37;;;;;;;;;;;7.40;99.90;;;;;;10445892;28;85028;-54
2022/03/24 06:17:37;;;;;;;;;;;7.50;1.00;;;;;;10416395;28;84384;-54
2022/03/24 06:22:42;;;;;;;;;;;7.60;1.00;;;;;;10436503;28;84783;-49
2022/03/24 06:27:43;;;;;;;;;;;7.90;1.00;;;;;;10428389;27;85097;-49
2022/03/24 06:32:43;;;;;;;;;;;8.30;99.90;;;;;;10427989;28;84951;-51
2022/03/24 06:37:44;;;;;;;;;;;8.50;99.90;;;;;;10429366;27;86708;-52
2022/03/24 06:42:45;;;;;;;;;;;8.70;1.00;;;;;;10439046;28;84178;-47
2022/03/24 06:47:46;;;;;;;;;;;9.20;1.00;;;;;;10426695;28;85024;-49
2022/03/24 06:52:47;;;;;;;;;;;9.70;1.00;;;;;;10431049;28;84113;-47
2022/03/24 06:57:51;;;;;;;;;;;10.20;99.90;;;;;;10430530;28;84978;-52
2022/03/24 07:02:52;;;;;;;;;;;10.50;99.90;;;;;;10434818;28;84293;-52
2022/03/24 07:07:52;;;;;;;;;;;10.90;1.00;;;;;;10427529;27;84100;-49
2022/03/24 07:12:53;;;;;;;;;;;11.40;1.00;;;;;;10453149;27;84275;-47
2022/03/24 07:17:53;;;;;;;;;;;11.70;1.00;;;;;;10451038;28;84608;-48
2022/03/24 07:22:57;;;;;;;;;;;12.10;1.00;;;;;;10431636;28;84744;-49
2022/03/24 07:27:58;;;;;;;;;;;12.40;1.00;;;;;;10431059;28;85012;-52
2022/03/24 07:32:59;;;;;;;;;;;12.90;99.90;;;;;;10432489;27;84315;-52
2022/03/24 07:38:00;;;;;;;;;;;13.20;1.00;;;;;;10439625;28;87739;-49
2022/03/24 07:43:01;;;;;;;;;;;13.60;1.00;;;;;;10433818;28;85261;-48
2022/03/24 07:48:09;;;;;;;;;;;14.00;1.00;;;;;;10432983;28;84118;-51
2022/03/24 07:53:13;;;;;;;;;;;14.40;1.00;;;;;;10433093;28;84930;-50
2022/03/24 07:58:15;;;;;;;;;;;14.80;1.00;;;;;;10430637;28;84958;-49
2022/03/24 08:03:18;;;;;;;;;;;15.20;99.90;;;;;;10433706;27;84215;-49
2022/03/24 08:08:19;;;;;;;;;;;15.60;99.90;;;;;;10430146;28;84278;-52
2022/03/24 08:13:22;;;;;;;;;;;16.10;99.90;;;;;;10433634;27;85457;-48
2022/03/24 08:18:22;;;;;;;;;;;16.50;99.90;;;;;;10430224;28;85153;-50
2022/03/24 08:23:23;;;;;;;;;;;16.90;99.90;;;;;;10431726;28;86130;-53
2022/03/24 08:28:23;;;;;;;;;;;17.40;99.90;;;;;;10430971;28;85136;-53
2022/03/24 08:33:24;;;;;;;;;;;17.90;58.10;;;;;;10433761;28;85055;-50
2022/03/24 08:38:25;;;;;;;;;;;18.30;1.00;;;;;;10429864;28;84915;-50
2022/03/24 08:43:25;;;;;;;;;;;18.60;1.00;;;;;;10431443;28;84336;-50
2022/03/24 08:48:26;;;;;;;;;;;19.40;1.00;;;;;;10432402;28;84326;-47
2022/03/24 08:53:26;;;;;;;;;;;19.50;1.00;;;;;;10427340;28;84847;-51
2022/03/24 08:58:27;;;;;;;;;;;19.80;1.00;;;;;;10430552;28;84951;-48
2022/03/24 09:03:27;;;;;;;;;;;19.90;1.00;;;;;;10435318;28;84050;-55
2022/03/24 09:08:28;;;;;;;;;;;20.40;1.00;;;;;;10433590;28;84041;-51
2022/03/24 09:13:28;;;;;;;;;;;20.50;1.00;;;;;;10431928;28;85063;-49
2022/03/24 09:18:29;;;;;;;;;;;20.30;1.00;;;;;;10429774;28;84874;-48
2022/03/24 09:23:30;;;;;;;;;;;20.60;1.00;;;;;;10431028;28;85053;-51
2022/03/24 09:28:31;;;;;;;;;;;21.30;1.00;;;;;;10429380;28;84354;-49
2022/03/24 09:33:32;;;;;;;;;;;21.70;1.00;;;;;;10430375;28;84092;-49
2022/03/24 09:38:33;;;;;;;;;;;21.90;1.00;;;;;;10436078;28;85942;-49
2022/03/24 09:43:34;;;;;;;;;;;22.00;1.00;;;;;;10430551;28;84672;-48
2022/03/24 09:48:35;;;;;;;;;;;22.20;1.00;;;;;;10428995;28;84058;-51
2022/03/24 09:53:39;;;;;;;;;;;22.20;1.00;;;;;;10431576;27;84281;-51
2022/03/24 09:58:42;;;;;;;;;;;22.10;1.00;;;;;;10429502;28;84905;-53
2022/03/24 10:04:01;;;;;;;;;;;22.10;1.00;;;;;;10427175;28;84780;-53
2022/03/24 10:09:02;;;;;;;;;;;23.10;1.00;;;;;;10408750;28;84061;-48
2022/03/24 10:14:03;;;;;;;;;;;23.60;1.00;;;;;;10412694;28;84132;-53
2022/03/24 10:19:07;;;;;;;;;;;23.40;1.00;;;;;;10433403;28;84107;-54
2022/03/24 10:27:25;;;;;;;;;;;23.80;1.00;;;;;;10492531;27;82849;-56
2022/03/24 10:32:29;;;;;;;;;;;23.70;1.00;;;;;;10471931;27;83289;-50
2022/03/24 10:37:30;;;;;;;;;;;24.10;1.00;;;;;;10459421;22;83822;-47
2022/03/24 10:42:32;;;;;;;;;;;23.90;1.00;;;;;;10403286;28;83659;-52
2022/03/24 10:47:51;;;;;;;;;;;24.10;1.00;;;;;;10403175;28;83022;-46
2022/03/24 10:52:53;;;;;;;;;;;24.50;1.00;;;;;;10401381;28;84571;-51
2022/03/24 10:57:53;;;;;;;;;;;24.30;1.00;;;;;;10402190;28;82965;-49
2022/03/24 11:02:54;;;;;;;;;;;24.40;1.00;;;;;;10402674;28;83801;-59
2022/03/24 11:07:55;;;;;;;;;;;24.60;1.00;;;;;;10401971;28;83167;-48
2022/03/24 11:12:59;;;;;;;;;;;24.70;1.00;;;;;;10404672;28;83637;-48
2022/03/24 11:18:00;;;;;;;;;;;24.70;1.00;;;;;;10401496;28;83916;-49
2022/03/24 11:23:03;;;;;;;;;;;24.40;1.00;;;;;;10402613;28;83703;-47
2022/03/24 11:28:07;;;;;;;;;;;24.60;1.00;;;;;;10401762;28;83819;-45
2022/03/24 11:33:10;;;;;;;;;;;24.40;1.00;;;;;;10403659;28;83714;-47
2022/03/24 11:38:10;;;;;;;;;;;24.50;1.00;;;;;;10374599;28;83844;-47
2022/03/24 11:43:16;;;;;;;;;;;24.70;1.00;;;;;;10375088;28;83923;-48
2022/03/24 11:48:17;;;;;;;;;;;24.60;1.00;;;;;;10374074;28;83646;-48
2022/03/24 11:53:27;;;;;;;;;;;25.00;1.00;;;;;;10374428;28;83777;-52
2022/03/24 11:58:46;;;;;;;;;;;24.60;1.00;;;;;;10373839;28;83437;-47
2022/03/24 12:03:48;;;;;;;;;;;24.80;1.00;;;;;;10378609;28;83752;-44
2022/03/24 12:08:50;;;;;;;;;;;25.30;1.00;;;;;;10379883;28;83809;-53
2022/03/24 12:13:55;;;;;;;;;;;25.30;1.00;;;;;;10373750;28;83507;-47
2022/03/24 12:18:55;;;;;;;;;;;25.40;1.00;;;;;;10372921;28;83802;-47
2022/03/24 12:24:08;;;;;;;;;;;25.80;1.00;;;;;;10373203;28;83749;-47
2022/03/24 12:29:11;;;;;;;;;;;25.60;1.00;;;;;;10370803;28;83910;-47
2022/03/24 12:34:12;;;;;;;;;;;25.90;1.00;;;;;;10369239;28;83795;-48
2022/03/24 12:39:28;;;;;;;;;;;25.10;1.00;;;;;;10370826;28;83926;-45
2022/03/24 12:44:47;;;;;;;;;;;25.20;1.00;;;;;;10373365;28;83859;-48
2022/03/24 12:49:47;;;;;;;;;;;25.50;1.00;;;;;;10372442;28;83925;-48
2022/03/24 12:54:52;;;;;;;;;;;25.40;1.00;;;;;;10374242;28;83814;-46
2022/03/24 12:59:53;;;;;;;;;;;25.40;1.00;;;;;;10372040;28;83832;-47
2022/03/24 13:04:54;;;;;;;;;;;25.50;1.00;;;;;;10373673;28;83784;-50
2022/03/24 13:10:02;;;;;;;;;;;25.50;1.00;;;;;;10353134;28;84508;-45
2022/03/24 13:15:03;;;;;;;;;;;25.40;1.00;;;;;;10372240;28;83765;-46
2022/03/24 13:20:05;;;;;;;;;;;24.90;1.00;;;;;;10370247;28;84370;-46
2022/03/24 13:25:10;;;;;;;;;;;25.00;1.00;;;;;;10371072;28;83844;-46
2022/03/24 13:30:12;;;;;;;;;;;25.20;1.00;;;;;;10369116;28;83739;-47
2022/03/24 13:35:15;;;;;;;;;;;25.70;1.00;;;;;;10371069;28;83919;-48
2022/03/24 13:40:16;;;;;;;;;;;25.50;1.00;;;;;;10370824;28;83897;-47
2022/03/24 13:45:17;;;;;;;;;;;25.50;1.00;;;;;;10370793;28;85148;-42
2022/03/24 13:50:19;;;;;;;;;;;25.50;1.00;;;;;;10370770;28;84106;-46
2022/03/24 13:55:23;;;;;;;;;;;25.20;1.00;;;;;;10370972;28;83781;-49
2022/03/24 14:00:26;;;;;;;;;;;25.00;1.00;;;;;;10372021;28;83792;-47
2022/03/24 14:05:45;;;;;;;;;;;24.40;1.00;;;;;;10371853;28;83735;-45
2022/03/24 14:10:46;;;;;;;;;;;24.30;1.00;;;;;;10372086;28;83738;-51
2022/03/24 14:15:48;;;;;;;;;;;24.30;1.00;;;;;;10371518;28;83360;-46
2022/03/24 14:20:52;;;;;;;;;;;24.30;1.00;;;;;;10369482;28;85576;-46
2022/03/24 14:25:52;;;;;;;;;;;24.10;1.00;;;;;;10368481;28;83845;-47
2022/03/24 14:30:53;;;;;;;;;;;23.70;1.00;;;;;;10370790;28;84180;-50
2022/03/24 14:35:57;;;;;;;;;;;24.00;1.00;;;;;;10368341;28;83986;-49
2022/03/24 14:40:58;;;;;;;;;;;23.70;1.00;;;;;;10352733;28;84172;-46
2022/03/24 14:45:59;;;;;;;;;;;22.90;1.00;;;;;;10353039;28;83725;-59
2022/03/24 14:50:59;;;;;;;;;;;23.10;1.00;;;;;;10346576;28;83049;-46
2022/03/24 14:56:00;;;;;;;;;;;23.20;1.00;;;;;;10366761;28;83866;-46
2022/03/24 15:01:01;;;;;;;;;;;22.90;1.00;;;;;;10346065;28;84202;-46
2022/03/24 15:06:03;;;;;;;;;;;22.70;1.00;;;;;;10346276;28;84335;-48
2022/03/24 15:11:05;;;;;;;;;;;22.40;1.00;;;;;;10364981;28;83779;-41
2022/03/24 15:16:07;;;;;;;;;;;21.90;1.00;;;;;;10373702;28;83738;-45
2022/03/24 15:21:08;;;;;;;;;;;21.20;1.00;;;;;;10369766;28;83988;-48
2022/03/24 15:26:08;;;;;;;;;;;20.60;1.00;;;;;;10356173;28;83899;-45
2022/03/24 15:31:09;;;;;;;;;;;20.20;1.00;;;;;;10366767;28;83864;-47
2022/03/24 15:36:10;;;;;;;;;;;20.00;1.00;;;;;;10375312;28;83678;-46
2022/03/24 15:41:13;;;;;;;;;;;19.80;1.00;;;;;;10375205;28;83691;-47
2022/03/24 15:46:14;;;;;;;;;;;19.60;1.00;;;;;;10373664;28;83785;-48
2022/03/24 15:51:15;;;;;;;;;;;19.50;1.00;;;;;;10347213;28;83939;-49
2022/03/24 15:56:15;;;;;;;;;;;19.40;1.00;;;;;;10346390;28;83814;-47
2022/03/24 16:01:17;;;;;;;;;;;19.40;1.00;;;;;;10341834;28;83944;-44
2022/03/24 16:06:17;;;;;;;;;;;19.20;1.00;;;;;;10356393;28;83881;-47
2022/03/24 16:11:18;;;;;;;;;;;19.00;1.00;;;;;;10365098;28;83828;-44
2022/03/24 16:16:19;;;;;;;;;;;18.80;1.00;;;;;;10370843;28;83823;-45
2022/03/24 16:21:20;;;;;;;;;;;18.80;1.00;;;;;;10373630;28;83948;-45
2022/03/24 16:26:20;;;;;;;;;;;18.70;1.00;;;;;;10368642;28;83812;-51
2022/03/24 16:31:21;;;;;;;;;;;18.60;1.00;;;;;;10372239;28;82946;-47
2022/03/24 16:36:21;;;;;;;;;;;18.50;1.00;;;;;;10380474;22;85798;-52
2022/03/24 16:41:22;;;;;;;;;;;18.50;1.00;;;;;;10367533;28;83001;-48
2022/03/24 16:46:23;;;;;;;;;;;18.30;1.00;;;;;;10368660;28;83864;-50
2022/03/24 16:51:24;;;;;;;;;;;18.20;1.00;;;;;;10365889;28;84119;-54
2022/03/24 16:56:25;;;;;;;;;;;18.20;1.00;;;;;;10357564;28;83322;-48
2022/03/24 17:01:25;;;;;;;;;;;18.00;1.00;;;;;;10394326;28;83733;-50
2022/03/24 17:06:26;;;;;;;;;;;18.00;1.00;;;;;;10402354;28;83774;-49
2022/03/24 17:11:27;;;;;;;;;;;17.80;1.00;;;;;;10369801;28;83746;-50
2022/03/24 17:16:28;;;;;;;;;;;17.70;1.00;;;;;;10326549;28;83744;-48
2022/03/24 17:21:28;;;;;;;;;;;17.80;1.00;;;;;;10361865;28;83850;-49
2022/03/24 17:26:29;;;;;;;;;;;17.70;1.00;;;;;;10369129;28;83793;-53
2022/03/24 17:31:29;;;;;;;;;;;17.50;1.00;;;;;;10363768;28;83318;-51
2022/03/24 17:36:31;;;;;;;;;;;17.30;1.00;;;;;;10355898;28;83388;-50
2022/03/24 17:41:32;;;;;;;;;;;17.20;1.00;;;;;;10366962;28;84203;-53
2022/03/24 17:46:33;;;;;;;;;;;17.10;1.00;;;;;;10364867;28;84935;-50
2022/03/24 17:51:33;;;;;;;;;;;16.90;1.00;;;;;;10366336;28;83942;-49
2022/03/24 17:56:35;;;;;;;;;;;16.80;1.00;;;;;;10361735;28;83774;-48
2022/03/24 18:01:36;;;;;;;;;;;16.60;1.00;;;;;;10364839;28;84130;-46
2022/03/24 18:06:37;;;;;;;;;;;16.50;1.00;;;;;;10352733;28;84501;-59
2022/03/24 18:11:38;;;;;;;;;;;16.30;1.00;;;;;;10361071;28;83211;-48
2022/03/24 18:16:38;;;;;;;;;;;16.10;1.00;;;;;;10349816;28;85264;-50
2022/03/24 18:21:39;;;;;;;;;;;16.00;1.00;;;;;;10369853;28;83638;-50
2022/03/24 18:26:40;;;;;;;;;;;15.90;1.00;;;;;;10363194;28;83968;-52
2022/03/24 18:31:42;;;;;;;;;;;15.70;1.00;;;;;;10354983;28;83210;-51
2022/03/24 18:36:44;;;;;;;;;;;15.60;1.00;;;;;;10333034;28;83312;-48
2022/03/24 18:41:45;;;;;;;;;;;15.50;1.00;;;;;;10349163;28;85732;-53
2022/03/24 18:46:46;;;;;;;;;;;15.40;1.00;;;;;;10370677;28;83284;-57
2022/03/24 18:51:46;;;;;;;;;;;15.20;1.00;;;;;;10379600;28;84253;-57
2022/03/24 18:56:47;;;;;;;;;;;15.30;1.00;;;;;;10375733;28;83996;-49
2022/03/24 19:01:47;;;;;;;;;;;15.10;1.00;;;;;;10367578;28;83779;-51
2022/03/24 19:06:48;;;;;;;;;;;15.00;1.00;;;;;;10370428;28;83445;-54
2022/03/24 19:11:49;;;;;;;;;;;14.90;1.00;;;;;;10369634;28;84132;-53
2022/03/24 19:16:49;;;;;;;;;;;14.80;1.00;;;;;;10368937;28;83355;-50
2022/03/24 19:21:50;;;;;;;;;;;14.60;1.00;;;;;;10367950;28;83758;-48
2022/03/24 19:26:51;;;;;;;;;;;14.50;1.00;;;;;;10367478;28;84183;-50
2022/03/24 19:31:51;;;;;;;;;;;14.50;1.00;;;;;;10368239;28;83993;-52
2022/03/24 19:36:52;;;;;;;;;;;14.40;1.00;;;;;;10367450;28;83470;-48
2022/03/24 19:41:52;;;;;;;;;;;14.30;1.00;;;;;;10360454;28;84281;-49
2022/03/24 19:46:53;;;;;;;;;;;14.10;1.00;;;;;;10355187;28;84126;-48
2022/03/24 19:51:54;;;;;;;;;;;14.10;1.00;;;;;;10355788;28;83938;-49
2022/03/24 19:56:55;;;;;;;;;;;14.10;1.00;;;;;;10362754;28;84017;-48
2022/03/24 20:01:55;;;;;;;;;;;14.00;1.00;;;;;;10364583;28;84003;-49
2022/03/24 20:06:57;;;;;;;;;;;13.90;1.00;;;;;;10370980;28;83758;-47
2022/03/24 20:11:57;;;;;;;;;;;13.70;1.00;;;;;;10370472;28;84189;-49
2022/03/24 20:16:58;;;;;;;;;;;13.60;1.00;;;;;;10366804;28;83924;-53
2022/03/24 20:21:58;;;;;;;;;;;13.50;1.00;;;;;;10370116;28;84170;-48
2022/03/24 20:26:59;;;;;;;;;;;13.40;1.00;;;;;;10368687;28;84471;-48
2022/03/24 20:32:00;;;;;;;;;;;13.30;1.00;;;;;;10369690;28;84344;-48
2022/03/24 20:37:01;;;;;;;;;;;13.20;1.00;;;;;;10347237;28;85283;-52
2022/03/24 20:42:04;;;;;;;;;;;13.10;1.00;;;;;;10370336;28;83466;-46
2022/03/24 20:47:05;;;;;;;;;;;13.00;1.00;;;;;;10368318;28;84032;-46
2022/03/24 20:52:07;;;;;;;;;;;12.90;1.00;;;;;;10370380;28;83725;-50
2022/03/24 20:57:07;;;;;;;;;;;12.80;1.00;;;;;;10365772;28;84832;-47
2022/03/24 21:02:09;;;;;;;;;;;12.80;1.00;;;;;;10368094;28;84103;-50
2022/03/24 21:07:10;;;;;;;;;;;12.70;1.00;;;;;;10366591;28;84191;-49
2022/03/24 21:12:12;;;;;;;;;;;12.70;1.00;;;;;;10368760;28;84354;-49
2022/03/24 21:17:12;;;;;;;;;;;12.50;1.00;;;;;;10371002;28;84215;-52
2022/03/24 21:22:13;;;;;;;;;;;12.40;1.00;;;;;;10372741;28;85477;-53
2022/03/24 21:27:14;;;;;;;;;;;12.40;53.60;;;;;;10370636;28;83458;-50
2022/03/24 21:32:15;;;;;;;;;;;12.30;99.90;;;;;;10403263;28;85315;-48
2022/03/24 21:37:16;;;;;;;;;;;12.20;99.90;;;;;;10369307;28;84112;-54
2022/03/24 21:42:17;;;;;;;;;;;12.10;99.90;;;;;;10369638;28;86236;-53
2022/03/24 21:47:17;;;;;;;;;;;12.10;99.90;;;;;;10370744;28;84138;-49
2022/03/24 21:52:18;;;;;;;;;;;11.90;99.90;;;;;;10370842;28;84114;-51
2022/03/24 21:57:21;;;;;;;;;;;11.90;99.90;;;;;;10370124;28;84156;-47
2022/03/24 22:02:21;;;;;;;;;;;11.80;1.00;;;;;;10370465;28;83909;-54
2022/03/24 22:07:22;;;;;;;;;;;11.70;1.00;;;;;;10369007;28;83168;-49
2022/03/24 22:12:22;;;;;;;;;;;11.70;1.00;;;;;;10369979;28;83803;-48
2022/03/24 22:17:23;;;;;;;;;;;11.70;1.00;;;;;;10368199;28;83980;-50
2022/03/24 22:22:24;;;;;;;;;;;11.60;1.00;;;;;;10369374;28;84158;-47
2022/03/24 22:27:25;;;;;;;;;;;11.50;1.00;;;;;;10349267;28;85837;-53
2022/03/24 22:32:25;;;;;;;;;;;11.30;1.00;;;;;;10369265;28;83326;-51
2022/03/24 22:37:26;;;;;;;;;;;11.10;1.00;;;;;;10383445;22;84372;-50
2022/03/24 22:42:26;;;;;;;;;;;11.10;1.00;;;;;;10367054;28;84067;-46
2022/03/24 22:47:29;;;;;;;;;;;11.00;1.00;;;;;;10358628;28;83975;-45
2022/03/24 22:52:30;;;;;;;;;;;11.00;1.00;;;;;;10361478;28;84226;-47
2022/03/24 22:57:31;;;;;;;;;;;11.00;1.00;;;;;;10335866;28;84281;-45
2022/03/24 23:02:31;;;;;;;;;;;10.90;24.10;;;;;;10328691;28;84441;-47
2022/03/24 23:07:32;;;;;;;;;;;10.80;1.00;;;;;;10326694;28;84119;-44
2022/03/24 23:12:32;;;;;;;;;;;10.70;1.00;;;;;;10298486;28;84298;-45
2022/03/24 23:17:33;;;;;;;;;;;10.60;1.00;;;;;;10286020;28;84101;-46
2022/03/24 23:22:33;;;;;;;;;;;10.60;1.00;;;;;;10286384;28;83637;-47
2022/03/24 23:27:34;;;;;;;;;;;10.50;1.00;;;;;;10324123;28;84109;-47
2022/03/24 23:32:35;;;;;;;;;;;10.50;1.00;;;;;;10330860;28;84313;-44
2022/03/24 23:37:37;;;;;;;;;;;10.40;33.90;;;;;;10323521;28;83855;-44
2022/03/24 23:42:37;;;;;;;;;;;10.30;99.90;;;;;;10293211;28;83664;-44
2022/03/24 23:47:38;;;;;;;;;;;10.20;99.90;;;;;;10291829;28;84085;-45
2022/03/24 23:52:39;;;;;;;;;;;10.10;99.90;;;;;;10313170;28;84012;-47
2022/03/24 23:57:40;;;;;;;;;;;10.10;99.90;;;;;;10331823;28;83636;-48
